createdAt,value
2018-05-01T00:00:32.637Z,18.75
2018-05-01T00:01:32.943Z,18.71
2018-05-01T00:02:32.674Z,18.73
2018-05-01T00:03:32.695Z,18.78
2018-05-01T00:04:32.996Z,18.68
2018-05-01T00:05:33.019Z,18.71
2018-05-01T00:06:32.751Z,18.7
2018-05-01T00:07:33.060Z,18.73
2018-05-01T00:08:33.084Z,18.75
2018-05-01T00:09:33.116Z,18.59
2018-05-01T00:10:33.096Z,18.6
2018-05-01T00:11:32.604Z,18.65
2018-05-01T00:12:32.876Z,18.58
2018-05-01T00:13:33.181Z,18.62
2018-05-01T00:14:33.190Z,18.65
2018-05-01T00:15:32.950Z,18.62
2018-05-01T00:16:33.238Z,18.52
2018-05-01T00:17:33.290Z,18.56
2018-05-01T00:18:33.295Z,18.49
2018-05-01T00:19:33.038Z,18.47
2018-05-01T00:20:32.782Z,18.47
2018-05-01T00:21:33.092Z,18.49
2018-05-01T00:22:33.108Z,18.45
2018-05-01T00:23:33.129Z,18.43
2018-05-01T00:24:33.425Z,18.43
2018-05-01T00:25:33.155Z,18.35
2018-05-01T00:26:33.198Z,18.38
2018-05-01T00:27:33.204Z,18.29
2018-05-01T00:28:33.524Z,18.34
2018-05-01T00:29:33.268Z,18.25
2018-05-01T00:30:32.991Z,18.29
2018-05-01T00:31:33.297Z,18.31
2018-05-01T00:32:33.323Z,18.2
2018-05-01T00:33:33.337Z,18.2
2018-05-01T00:34:33.068Z,18.22
2018-05-01T00:35:33.359Z,18.28
2018-05-01T00:36:33.677Z,18.16
2018-05-01T00:37:33.693Z,18.2
2018-05-01T00:38:33.727Z,18.16
2018-05-01T00:39:33.751Z,18.19
2018-05-01T00:40:33.760Z,18.11
2018-05-01T00:41:33.488Z,18.11
2018-05-01T00:42:33.517Z,18.01
2018-05-01T00:43:33.808Z,18.23
2018-05-01T00:44:33.583Z,18.07
2018-05-01T00:45:33.576Z,18.08
2018-05-01T00:46:33.905Z,18.05
2018-05-01T00:47:33.620Z,18.03
2018-05-01T00:48:33.634Z,18.07
2018-05-01T00:49:33.655Z,18.05
2018-05-01T00:50:33.981Z,18.04
2018-05-01T00:51:34.155Z,18.04
2018-05-01T00:52:34.010Z,18.05
2018-05-01T00:53:34.036Z,18.13
2018-05-01T00:54:34.062Z,18.01
2018-05-01T00:55:33.792Z,18.04
2018-05-01T00:56:34.077Z,18.04
2018-05-01T00:57:33.831Z,18.03
2018-05-01T00:58:34.146Z,18.01
2018-05-01T00:59:33.865Z,17.98
2018-05-01T01:00:33.963Z,18.03
2018-05-01T01:01:33.918Z,17.98
2018-05-01T01:02:33.926Z,17.94
2018-05-01T01:03:33.954Z,18
2018-05-01T01:04:34.271Z,17.98
2018-05-01T01:05:34.048Z,17.98
2018-05-01T01:06:34.318Z,17.85
2018-05-01T01:07:34.028Z,17.94
2018-05-01T01:08:34.369Z,17.87
2018-05-01T01:09:34.380Z,17.9
2018-05-01T01:10:34.101Z,17.89
2018-05-01T01:11:34.429Z,17.87
2018-05-01T01:12:34.156Z,17.89
2018-05-01T01:13:34.452Z,17.86
2018-05-01T01:14:34.190Z,17.87
2018-05-01T01:15:34.196Z,17.86
2018-05-01T01:16:34.306Z,17.85
2018-05-01T01:17:34.253Z,17.85
2018-05-01T01:18:34.561Z,17.78
2018-05-01T01:19:34.576Z,17.86
2018-05-01T01:20:34.308Z,17.83
2018-05-01T01:21:34.353Z,17.78
2018-05-01T01:22:34.626Z,17.79
2018-05-01T01:23:34.652Z,17.78
2018-05-01T01:24:34.688Z,17.78
2018-05-01T01:25:34.714Z,17.78
2018-05-01T01:26:34.735Z,17.76
2018-05-01T01:27:34.449Z,17.72
2018-05-01T01:28:34.760Z,17.71
2018-05-01T01:29:34.507Z,17.71
2018-05-01T01:30:34.839Z,17.76
2018-05-01T01:31:34.827Z,17.7
2018-05-01T01:32:34.830Z,17.68
2018-05-01T01:33:34.857Z,17.68
2018-05-01T01:34:34.889Z,17.63
2018-05-01T01:35:34.645Z,17.65
2018-05-01T01:36:34.556Z,17.59
2018-05-01T01:37:34.669Z,17.64
2018-05-01T01:38:34.966Z,17.56
2018-05-01T01:39:34.991Z,17.54
2018-05-01T01:40:35.001Z,17.63
2018-05-01T01:41:35.032Z,17.57
2018-05-01T01:42:35.038Z,17.54
2018-05-01T01:43:35.056Z,17.52
2018-05-01T01:44:34.800Z,17.51
2018-05-01T01:45:35.755Z,17.48
2018-05-01T01:46:35.235Z,17.46
2018-05-01T01:47:35.612Z,17.44
2018-05-01T01:48:35.225Z,17.39
2018-05-01T01:49:35.319Z,17.39
2018-05-01T01:50:35.589Z,17.38
2018-05-01T01:51:35.413Z,17.33
2018-05-01T01:52:35.674Z,17.24
2018-05-01T01:53:35.356Z,17.26
2018-05-01T01:54:35.646Z,17.24
2018-05-01T01:55:35.316Z,17.2
2018-05-01T01:56:35.396Z,17.22
2018-05-01T01:57:35.920Z,17.12
2018-05-01T01:58:35.502Z,17.15
2018-05-01T01:59:35.781Z,17.11
2018-05-01T02:00:35.450Z,17.15
2018-05-01T02:01:35.769Z,17.12
2018-05-01T02:02:35.482Z,17.15
2018-05-01T02:03:35.789Z,17.16
2018-05-01T02:04:35.882Z,17.14
2018-05-01T02:05:35.939Z,17.2
2018-05-01T02:06:35.879Z,17.09
2018-05-01T02:07:35.990Z,17.06
2018-05-01T02:08:36.033Z,17.06
2018-05-01T02:09:35.923Z,17.14
2018-05-01T02:10:35.651Z,17.14
2018-05-01T02:11:36.054Z,17.16
2018-05-01T02:12:36.061Z,17.12
2018-05-01T02:13:35.687Z,17.06
2018-05-01T02:14:35.711Z,17.05
2018-05-01T02:15:35.730Z,17.05
2018-05-01T02:16:36.030Z,17.06
2018-05-01T02:17:36.043Z,17.04
2018-05-01T02:18:36.131Z,17.02
2018-05-01T02:19:36.099Z,17.04
2018-05-01T02:20:36.144Z,17.06
2018-05-01T02:21:36.180Z,16.96
2018-05-01T02:22:35.976Z,17.08
2018-05-01T02:23:36.081Z,17.01
2018-05-01T02:24:35.912Z,17.05
2018-05-01T02:25:36.225Z,17.02
2018-05-01T02:26:36.614Z,16.96
2018-05-01T02:27:36.250Z,16.99
2018-05-01T02:28:35.804Z,16.97
2018-05-01T02:29:36.247Z,16.87
2018-05-01T02:30:36.039Z,16.86
2018-05-01T02:31:36.166Z,16.89
2018-05-01T02:32:36.169Z,16.91
2018-05-01T02:33:35.813Z,16.94
2018-05-01T02:34:36.129Z,16.84
2018-05-01T02:35:36.152Z,16.78
2018-05-01T02:36:36.640Z,16.84
2018-05-01T02:37:36.190Z,16.86
2018-05-01T02:38:36.212Z,16.81
2018-05-01T02:39:35.929Z,16.79
2018-05-01T02:40:35.947Z,16.79
2018-05-01T02:41:36.251Z,16.76
2018-05-01T02:42:36.277Z,16.75
2018-05-01T02:43:36.305Z,16.76
2018-05-01T02:44:36.310Z,16.78
2018-05-01T02:45:36.041Z,16.74
2018-05-01T02:46:36.443Z,16.79
2018-05-01T02:47:36.390Z,16.81
2018-05-01T02:48:36.241Z,16.81
2018-05-01T02:49:36.949Z,16.78
2018-05-01T02:50:36.423Z,16.76
2018-05-01T02:51:36.435Z,16.83
2018-05-01T02:52:36.241Z,16.79
2018-05-01T02:53:36.222Z,16.72
2018-05-01T02:54:36.516Z,16.75
2018-05-01T02:55:36.279Z,16.79
2018-05-01T02:56:36.541Z,16.69
2018-05-01T02:57:36.577Z,16.76
2018-05-01T02:58:36.598Z,16.65
2018-05-01T02:59:36.607Z,16.6
2018-05-01T03:00:36.617Z,16.65
2018-05-01T03:01:36.654Z,16.64
2018-05-01T03:02:36.679Z,16.6
2018-05-01T03:03:36.685Z,16.6
2018-05-01T03:04:36.729Z,16.61
2018-05-01T03:05:36.435Z,16.61
2018-05-01T03:06:36.813Z,16.65
2018-05-01T03:07:36.770Z,16.64
2018-05-01T03:08:36.524Z,16.65
2018-05-01T03:09:36.531Z,16.56
2018-05-01T03:10:36.832Z,16.49
2018-05-01T03:11:36.918Z,16.54
2018-05-01T03:12:36.578Z,16.54
2018-05-01T03:13:36.907Z,16.54
2018-05-01T03:14:36.714Z,16.54
2018-05-01T03:15:36.931Z,16.47
2018-05-01T03:16:37.016Z,16.53
2018-05-01T03:17:36.968Z,16.47
2018-05-01T03:18:36.985Z,16.54
2018-05-01T03:19:36.727Z,16.53
2018-05-01T03:20:36.475Z,16.42
2018-05-01T03:21:37.052Z,16.51
2018-05-01T03:22:37.089Z,16.51
2018-05-01T03:23:37.094Z,16.43
2018-05-01T03:24:37.106Z,16.43
2018-05-01T03:25:37.120Z,16.5
2018-05-01T03:26:37.172Z,16.43
2018-05-01T03:27:37.190Z,16.43
2018-05-01T03:28:37.181Z,16.47
2018-05-01T03:29:37.200Z,16.46
2018-05-01T03:30:37.220Z,16.41
2018-05-01T03:31:37.357Z,16.49
2018-05-01T03:32:36.987Z,16.42
2018-05-01T03:33:37.013Z,16.35
2018-05-01T03:34:37.304Z,16.39
2018-05-01T03:35:37.055Z,16.36
2018-05-01T03:36:37.372Z,16.36
2018-05-01T03:37:37.363Z,16.41
2018-05-01T03:38:37.381Z,16.36
2018-05-01T03:39:37.409Z,16.41
2018-05-01T03:40:37.422Z,16.38
2018-05-01T03:41:37.442Z,16.42
2018-05-01T03:42:37.475Z,16.33
2018-05-01T03:43:37.485Z,16.43
2018-05-01T03:44:37.513Z,16.42
2018-05-01T03:45:37.542Z,16.38
2018-05-01T03:46:37.555Z,16.39
2018-05-01T03:47:37.563Z,16.42
2018-05-01T03:48:37.565Z,16.35
2018-05-01T03:49:37.323Z,16.42
2018-05-01T03:50:37.610Z,16.42
2018-05-01T03:51:37.660Z,16.31
2018-05-01T03:52:37.676Z,16.31
2018-05-01T03:53:37.682Z,16.31
2018-05-01T03:54:37.701Z,16.2
2018-05-01T03:55:37.776Z,16.24
2018-05-01T03:56:37.441Z,16.21
2018-05-01T03:57:37.765Z,16.28
2018-05-01T03:58:37.765Z,16.28
2018-05-01T03:59:37.802Z,16.28
2018-05-01T04:00:37.544Z,16.28
2018-05-01T04:01:37.555Z,16.24
2018-05-01T04:02:37.878Z,16.24
2018-05-01T04:03:37.861Z,16.21
2018-05-01T04:04:37.894Z,16.23
2018-05-01T04:05:37.643Z,16.23
2018-05-01T04:06:37.936Z,16.2
2018-05-01T04:07:37.969Z,16.16
2018-05-01T04:08:37.704Z,16.2
2018-05-01T04:09:37.707Z,16.16
2018-05-01T04:10:38.009Z,16.24
2018-05-01T04:11:37.739Z,16.2
2018-05-01T04:12:38.054Z,16.24
2018-05-01T04:13:38.071Z,16.15
2018-05-01T04:14:38.086Z,16.24
2018-05-01T04:15:38.336Z,16.17
2018-05-01T04:16:38.767Z,16.2
2018-05-01T04:17:38.542Z,16.16
2018-05-01T04:18:39.060Z,16.16
2018-05-01T04:19:37.832Z,16.15
2018-05-01T04:20:38.676Z,16.15
2018-05-01T04:21:38.642Z,16.15
2018-05-01T04:22:38.535Z,16.13
2018-05-01T04:23:38.864Z,16.16
2018-05-01T04:24:38.554Z,16.16
2018-05-01T04:25:38.088Z,16.13
2018-05-01T04:26:38.646Z,16.15
2018-05-01T04:27:39.201Z,16.2
2018-05-01T04:28:38.838Z,16.15
2018-05-01T04:29:38.433Z,16.2
2018-05-01T04:30:39.285Z,16.15
2018-05-01T04:31:38.719Z,16.13
2018-05-01T04:32:39.108Z,16.16
2018-05-01T04:33:38.790Z,16.17
2018-05-01T04:34:38.966Z,16.09
2018-05-01T04:35:38.990Z,16.15
2018-05-01T04:36:39.052Z,16.1
2018-05-01T04:37:39.405Z,16.12
2018-05-01T04:38:39.274Z,16.21
2018-05-01T04:39:39.039Z,16.1
2018-05-01T04:40:39.102Z,16.02
2018-05-01T04:41:38.659Z,16.1
2018-05-01T04:42:39.448Z,16.09
2018-05-01T04:43:39.183Z,16.09
2018-05-01T04:44:39.103Z,16.15
2018-05-01T04:45:39.276Z,16.16
2018-05-01T04:46:39.165Z,16.16
2018-05-01T04:47:39.567Z,16.13
2018-05-01T04:48:38.830Z,16.09
2018-05-01T04:49:39.367Z,16.1
2018-05-01T04:50:39.187Z,16.15
2018-05-01T04:51:39.311Z,16.09
2018-05-01T04:52:39.046Z,16.2
2018-05-01T04:53:38.856Z,16.09
2018-05-01T04:54:38.592Z,16.1
2018-05-01T04:55:38.895Z,16.13
2018-05-01T04:56:38.639Z,16.15
2018-05-01T04:57:38.950Z,16.15
2018-05-01T04:58:39.233Z,16.13
2018-05-01T04:59:38.679Z,16.16
2018-05-01T05:00:39.001Z,16.08
2018-05-01T05:01:39.025Z,16.15
2018-05-01T05:02:39.009Z,16.16
2018-05-01T05:03:38.753Z,16.15
2018-05-01T05:04:38.775Z,16.15
2018-05-01T05:05:39.083Z,16.12
2018-05-01T05:06:38.830Z,16.1
2018-05-01T05:07:39.171Z,16.09
2018-05-01T05:08:38.855Z,16.15
2018-05-01T05:09:38.987Z,16.1
2018-05-01T05:10:39.196Z,16.16
2018-05-01T05:11:39.191Z,16.08
2018-05-01T05:12:38.935Z,16.13
2018-05-01T05:13:39.254Z,16.05
2018-05-01T05:14:38.983Z,16.13
2018-05-01T05:15:39.371Z,16.08
2018-05-01T05:16:39.309Z,16.01
2018-05-01T05:17:39.087Z,16.08
2018-05-01T05:18:39.341Z,15.97
2018-05-01T05:19:39.385Z,16
2018-05-01T05:20:39.386Z,15.97
2018-05-01T05:21:39.396Z,15.98
2018-05-01T05:22:39.175Z,15.98
2018-05-01T05:23:39.446Z,15.94
2018-05-01T05:24:38.879Z,15.95
2018-05-01T05:25:39.492Z,15.92
2018-05-01T05:26:39.504Z,15.91
2018-05-01T05:27:38.995Z,15.91
2018-05-01T05:28:39.266Z,15.92
2018-05-01T05:29:39.528Z,15.86
2018-05-01T05:30:39.282Z,15.92
2018-05-01T05:31:39.592Z,15.97
2018-05-01T05:32:39.347Z,15.91
2018-05-01T05:33:39.607Z,15.97
2018-05-01T05:34:39.648Z,15.88
2018-05-01T05:35:39.667Z,15.94
2018-05-01T05:36:39.695Z,15.91
2018-05-01T05:37:39.416Z,15.9
2018-05-01T05:38:39.737Z,15.88
2018-05-01T05:39:39.745Z,15.77
2018-05-01T05:40:39.479Z,15.83
2018-05-01T05:41:39.768Z,15.76
2018-05-01T05:42:39.523Z,15.83
2018-05-01T05:43:39.835Z,15.77
2018-05-01T05:44:39.911Z,15.77
2018-05-01T05:45:39.598Z,15.82
2018-05-01T05:46:39.880Z,15.72
2018-05-01T05:47:39.626Z,15.72
2018-05-01T05:48:39.916Z,15.75
2018-05-01T05:49:39.940Z,15.72
2018-05-01T05:50:39.669Z,15.75
2018-05-01T05:51:39.708Z,15.75
2018-05-01T05:52:39.971Z,15.64
2018-05-01T05:53:39.730Z,15.65
2018-05-01T05:54:39.751Z,15.64
2018-05-01T05:55:40.040Z,15.72
2018-05-01T05:56:40.089Z,15.75
2018-05-01T05:57:39.811Z,15.7
2018-05-01T05:58:39.551Z,15.62
2018-05-01T05:59:40.121Z,15.72
2018-05-01T06:00:40.153Z,15.64
2018-05-01T06:01:40.185Z,15.7
2018-05-01T06:02:39.891Z,15.72
2018-05-01T06:03:40.215Z,15.62
2018-05-01T06:04:40.241Z,15.7
2018-05-01T06:05:40.250Z,15.64
2018-05-01T06:06:39.975Z,15.7
2018-05-01T06:07:40.076Z,15.64
2018-05-01T06:08:40.524Z,15.67
2018-05-01T06:09:40.359Z,15.65
2018-05-01T06:10:40.329Z,15.64
2018-05-01T06:11:40.361Z,15.62
2018-05-01T06:12:40.370Z,15.62
2018-05-01T06:13:40.246Z,15.68
2018-05-01T06:14:40.152Z,15.7
2018-05-01T06:15:40.454Z,15.68
2018-05-01T06:16:40.456Z,15.65
2018-05-01T06:17:40.491Z,15.64
2018-05-01T06:18:40.216Z,15.65
2018-05-01T06:19:40.526Z,15.61
2018-05-01T06:20:40.549Z,15.62
2018-05-01T06:21:40.263Z,15.67
2018-05-01T06:22:40.019Z,15.62
2018-05-01T06:23:40.323Z,15.64
2018-05-01T06:24:40.600Z,15.67
2018-05-01T06:25:40.647Z,15.64
2018-05-01T06:26:40.642Z,15.65
2018-05-01T06:27:40.390Z,15.58
2018-05-01T06:28:40.677Z,15.61
2018-05-01T06:29:40.704Z,15.75
2018-05-01T06:30:40.738Z,15.68
2018-05-01T06:31:40.725Z,15.64
2018-05-01T06:32:40.763Z,15.73
2018-05-01T06:33:40.503Z,15.62
2018-05-01T06:34:40.804Z,15.59
2018-05-01T06:35:40.547Z,15.64
2018-05-01T06:36:40.855Z,15.72
2018-05-01T06:37:40.875Z,15.62
2018-05-01T06:38:40.594Z,15.64
2018-05-01T06:39:40.629Z,15.62
2018-05-01T06:40:40.931Z,15.59
2018-05-01T06:41:40.931Z,15.7
2018-05-01T06:42:40.970Z,15.58
2018-05-01T06:43:40.973Z,15.55
2018-05-01T06:44:40.696Z,15.67
2018-05-01T06:45:40.734Z,15.67
2018-05-01T06:46:41.029Z,15.59
2018-05-01T06:47:41.045Z,15.68
2018-05-01T06:48:41.079Z,15.61
2018-05-01T06:49:40.824Z,15.64
2018-05-01T06:50:41.192Z,15.65
2018-05-01T06:51:41.119Z,15.65
2018-05-01T06:52:40.866Z,15.7
2018-05-01T06:53:41.171Z,15.62
2018-05-01T06:54:40.624Z,15.7
2018-05-01T06:55:40.958Z,15.75
2018-05-01T06:56:40.680Z,15.75
2018-05-01T06:57:40.967Z,15.75
2018-05-01T06:58:40.959Z,15.82
2018-05-01T06:59:41.002Z,15.83
2018-05-01T07:00:41.025Z,15.83
2018-05-01T07:01:41.316Z,16.01
2018-05-01T07:02:41.060Z,15.94
2018-05-01T07:03:41.072Z,15.9
2018-05-01T07:04:41.369Z,16
2018-05-01T07:05:41.402Z,15.94
2018-05-01T07:06:41.133Z,16.04
2018-05-01T07:07:41.152Z,16.04
2018-05-01T07:08:41.441Z,16.15
2018-05-01T07:09:41.181Z,16.15
2018-05-01T07:10:41.363Z,16.17
2018-05-01T07:11:41.482Z,16.28
2018-05-01T07:12:41.237Z,16.21
2018-05-01T07:13:41.248Z,16.23
2018-05-01T07:14:41.277Z,16.35
2018-05-01T07:15:41.588Z,16.33
2018-05-01T07:16:41.325Z,16.41
2018-05-01T07:17:41.614Z,16.42
2018-05-01T07:18:41.345Z,16.41
2018-05-01T07:19:41.652Z,16.5
2018-05-01T07:20:41.680Z,16.51
2018-05-01T07:21:41.681Z,16.49
2018-05-01T07:22:41.421Z,16.49
2018-05-01T07:23:41.515Z,16.51
2018-05-01T07:24:41.771Z,16.65
2018-05-01T07:25:41.752Z,16.71
2018-05-01T07:26:41.524Z,16.72
2018-05-01T07:27:41.516Z,16.75
2018-05-01T07:28:41.601Z,16.79
2018-05-01T07:29:41.557Z,16.76
2018-05-01T07:30:41.859Z,16.72
2018-05-01T07:31:41.894Z,16.81
2018-05-01T07:32:41.626Z,16.84
2018-05-01T07:33:41.976Z,16.78
2018-05-01T07:34:41.955Z,16.78
2018-05-01T07:35:42.141Z,16.93
2018-05-01T07:36:41.991Z,16.91
2018-05-01T07:37:42.029Z,16.9
2018-05-01T07:38:42.053Z,16.9
2018-05-01T07:39:41.783Z,16.87
2018-05-01T07:40:42.058Z,17.04
2018-05-01T07:41:42.177Z,17.08
2018-05-01T07:42:42.101Z,17.06
2018-05-01T07:43:42.177Z,17.02
2018-05-01T07:44:42.159Z,17.11
2018-05-01T07:45:41.889Z,16.99
2018-05-01T07:46:42.176Z,17.08
2018-05-01T07:47:41.918Z,17.05
2018-05-01T07:48:42.203Z,17.11
2018-05-01T07:49:42.236Z,17.12
2018-05-01T07:50:42.257Z,17.19
2018-05-01T07:51:42.274Z,17.16
2018-05-01T07:52:42.283Z,17.12
2018-05-01T07:53:42.319Z,17.26
2018-05-01T07:54:42.317Z,17.26
2018-05-01T07:55:42.067Z,17.2
2018-05-01T07:56:42.091Z,17.27
2018-05-01T07:57:42.378Z,17.36
2018-05-01T07:58:42.469Z,17.3
2018-05-01T07:59:42.148Z,17.34
2018-05-01T08:00:42.452Z,17.34
2018-05-01T08:01:42.190Z,17.38
2018-05-01T08:02:42.496Z,17.38
2018-05-01T08:03:42.633Z,17.51
2018-05-01T08:04:42.545Z,17.48
2018-05-01T08:05:42.538Z,17.6
2018-05-01T08:06:42.574Z,17.57
2018-05-01T08:07:42.608Z,17.56
2018-05-01T08:08:42.674Z,17.57
2018-05-01T08:09:42.632Z,17.63
2018-05-01T08:10:42.658Z,17.6
2018-05-01T08:11:43.099Z,17.68
2018-05-01T08:12:43.174Z,17.7
2018-05-01T08:13:43.750Z,17.8
2018-05-01T08:14:43.769Z,17.7
2018-05-01T08:15:43.145Z,17.72
2018-05-01T08:16:43.184Z,17.76
2018-05-01T08:17:44.116Z,17.78
2018-05-01T08:19:43.419Z,17.86
2018-05-01T08:20:43.530Z,17.89
2018-05-01T08:21:43.124Z,17.92
2018-05-01T08:22:43.348Z,17.95
2018-05-01T08:23:43.881Z,18
2018-05-01T08:24:43.080Z,18.01
2018-05-01T08:25:43.399Z,18.01
2018-05-01T08:26:44.203Z,18.08
2018-05-01T08:27:43.723Z,18.01
2018-05-01T08:28:43.988Z,18.13
2018-05-01T08:29:43.619Z,18.04
2018-05-01T08:30:42.844Z,18.15
2018-05-01T08:31:43.452Z,18.16
2018-05-01T08:32:44.087Z,18.15
2018-05-01T08:33:44.169Z,18.11
2018-05-01T08:34:43.312Z,18.03
2018-05-01T08:35:43.308Z,18.04
2018-05-01T08:36:44.132Z,18.01
2018-05-01T08:37:43.369Z,17.97
2018-05-01T08:38:43.221Z,17.98
2018-05-01T08:39:43.059Z,17.97
2018-05-01T08:40:43.274Z,17.92
2018-05-01T08:41:43.280Z,17.9
2018-05-01T08:42:43.289Z,17.92
2018-05-01T08:43:43.319Z,17.87
2018-05-01T08:44:43.354Z,17.94
2018-05-01T08:45:43.072Z,17.86
2018-05-01T08:46:43.376Z,17.85
2018-05-01T08:47:43.387Z,17.86
2018-05-01T08:48:42.857Z,17.85
2018-05-01T08:49:43.508Z,17.83
2018-05-01T08:50:43.476Z,17.89
2018-05-01T08:51:43.204Z,17.86
2018-05-01T08:52:43.501Z,17.89
2018-05-01T08:53:43.527Z,17.85
2018-05-01T08:54:43.560Z,17.97
2018-05-01T08:55:43.596Z,18.01
2018-05-01T08:56:43.591Z,18.05
2018-05-01T08:57:43.605Z,18.11
2018-05-01T08:58:43.340Z,17.95
2018-05-01T08:59:43.708Z,17.97
2018-05-01T09:00:43.665Z,17.98
2018-05-01T09:01:43.669Z,18.03
2018-05-01T09:02:43.694Z,18.03
2018-05-01T09:03:43.460Z,18.04
2018-05-01T09:04:43.758Z,18.16
2018-05-01T09:05:43.214Z,18.11
2018-05-01T09:06:43.523Z,18.19
2018-05-01T09:07:43.804Z,18.19
2018-05-01T09:08:43.543Z,18.29
2018-05-01T09:09:43.845Z,18.29
2018-05-01T09:10:43.587Z,18.34
2018-05-01T09:11:43.887Z,18.33
2018-05-01T09:12:43.928Z,18.37
2018-05-01T09:13:43.657Z,18.44
2018-05-01T09:14:43.692Z,18.5
2018-05-01T09:15:43.967Z,18.56
2018-05-01T09:16:44.001Z,18.65
2018-05-01T09:17:44.180Z,18.6
2018-05-01T09:18:43.760Z,18.7
2018-05-01T09:19:44.124Z,18.74
2018-05-01T09:20:44.064Z,18.75
2018-05-01T09:21:44.070Z,18.78
2018-05-01T09:22:44.131Z,18.86
2018-05-01T09:23:44.115Z,18.81
2018-05-01T09:24:43.869Z,18.83
2018-05-01T09:25:43.608Z,18.89
2018-05-01T09:26:44.174Z,18.99
2018-05-01T09:27:44.226Z,19.02
2018-05-01T09:28:44.233Z,19.08
2018-05-01T09:29:44.236Z,19.19
2018-05-01T09:30:44.003Z,19.19
2018-05-01T09:31:44.024Z,19.22
2018-05-01T09:32:44.316Z,19.3
2018-05-01T09:33:44.318Z,19.44
2018-05-01T09:34:44.367Z,19.27
2018-05-01T09:35:44.098Z,19.33
2018-05-01T09:36:44.414Z,19.34
2018-05-01T09:37:44.153Z,19.49
2018-05-01T09:38:44.424Z,19.54
2018-05-01T09:39:44.512Z,19.59
2018-05-01T09:40:44.198Z,19.56
2018-05-01T09:41:44.518Z,19.56
2018-05-01T09:42:44.538Z,19.55
2018-05-01T09:43:44.534Z,19.63
2018-05-01T09:44:44.319Z,19.73
2018-05-01T09:45:44.580Z,19.79
2018-05-01T09:46:44.619Z,19.73
2018-05-01T09:47:44.460Z,19.85
2018-05-01T09:48:44.660Z,19.94
2018-05-01T09:49:44.701Z,19.94
2018-05-01T09:50:44.681Z,20.03
2018-05-01T09:51:44.716Z,20.04
2018-05-01T09:52:44.167Z,20.03
2018-05-01T09:53:44.761Z,20.14
2018-05-01T09:54:44.831Z,20.11
2018-05-01T09:55:44.798Z,20.13
2018-05-01T09:56:44.829Z,20.29
2018-05-01T09:57:44.844Z,20.29
2018-05-01T09:58:44.868Z,20.29
2018-05-01T09:59:44.874Z,20.4
2018-05-01T10:00:44.874Z,20.43
2018-05-01T10:01:45.018Z,20.48
2018-05-01T10:02:44.664Z,20.52
2018-05-01T10:03:44.971Z,20.5
2018-05-01T10:04:44.964Z,20.62
2018-05-01T10:05:44.720Z,20.59
2018-05-01T10:06:44.750Z,20.75
2018-05-01T10:07:44.761Z,20.8
2018-05-01T10:08:44.785Z,20.84
2018-05-01T10:09:45.080Z,20.99
2018-05-01T10:10:45.127Z,21.05
2018-05-01T10:11:45.129Z,21.05
2018-05-01T10:12:45.175Z,21.12
2018-05-01T10:13:45.158Z,21.24
2018-05-01T10:14:45.182Z,21.25
2018-05-01T10:15:45.208Z,21.33
2018-05-01T10:16:44.949Z,21.39
2018-05-01T10:17:45.275Z,21.37
2018-05-01T10:18:45.266Z,21.4
2018-05-01T10:19:45.309Z,21.48
2018-05-01T10:20:45.067Z,21.58
2018-05-01T10:21:45.344Z,21.51
2018-05-01T10:22:45.086Z,21.61
2018-05-01T10:23:45.109Z,21.75
2018-05-01T10:24:45.179Z,21.73
2018-05-01T10:25:45.446Z,21.79
2018-05-01T10:26:45.473Z,21.88
2018-05-01T10:27:45.451Z,21.88
2018-05-01T10:28:45.776Z,21.88
2018-05-01T10:29:45.502Z,21.95
2018-05-01T10:30:45.536Z,21.99
2018-05-01T10:31:45.561Z,22
2018-05-01T10:32:45.672Z,22.04
2018-05-01T10:33:45.596Z,22.17
2018-05-01T10:34:45.354Z,22.2
2018-05-01T10:35:45.666Z,22.25
2018-05-01T10:36:45.408Z,22.29
2018-05-01T10:37:45.695Z,22.33
2018-05-01T10:38:45.602Z,22.45
2018-05-01T10:39:45.232Z,22.45
2018-05-01T10:40:45.758Z,22.5
2018-05-01T10:41:45.513Z,22.47
2018-05-01T10:42:45.531Z,22.45
2018-05-01T10:43:45.551Z,22.54
2018-05-01T10:44:45.929Z,22.59
2018-05-01T10:45:45.676Z,22.66
2018-05-01T10:46:45.622Z,22.68
2018-05-01T10:47:45.910Z,22.75
2018-05-01T10:48:45.949Z,22.8
2018-05-01T10:49:45.954Z,22.83
2018-05-01T10:50:45.981Z,22.9
2018-05-01T10:51:46.013Z,22.91
2018-05-01T10:52:46.026Z,22.98
2018-05-01T10:53:46.041Z,23.05
2018-05-01T10:54:46.224Z,23.05
2018-05-01T10:55:46.095Z,23.08
2018-05-01T10:56:45.831Z,23.21
2018-05-01T10:57:46.135Z,23.24
2018-05-01T10:58:46.249Z,23.24
2018-05-01T10:59:45.887Z,23.24
2018-05-01T11:00:46.348Z,23.31
2018-05-01T11:01:46.231Z,23.34
2018-05-01T11:02:46.258Z,23.51
2018-05-01T11:03:46.255Z,23.46
2018-05-01T11:04:46.070Z,23.55
2018-05-01T11:05:46.059Z,23.55
2018-05-01T11:06:46.326Z,23.61
2018-05-01T11:07:46.368Z,23.61
2018-05-01T11:08:46.402Z,23.61
2018-05-01T11:09:46.127Z,23.69
2018-05-01T11:10:46.415Z,23.76
2018-05-01T11:11:46.529Z,23.76
2018-05-01T11:12:46.474Z,23.86
2018-05-01T11:13:46.235Z,23.87
2018-05-01T11:14:46.516Z,23.96
2018-05-01T11:15:46.569Z,23.93
2018-05-01T11:16:46.583Z,24.06
2018-05-01T11:17:46.611Z,24.11
2018-05-01T11:18:46.631Z,24.18
2018-05-01T11:19:46.404Z,24.16
2018-05-01T11:20:46.745Z,24.21
2018-05-01T11:21:46.675Z,24.32
2018-05-01T11:22:46.426Z,24.29
2018-05-01T11:23:46.739Z,24.38
2018-05-01T11:24:46.742Z,24.38
2018-05-01T11:25:46.783Z,24.42
2018-05-01T11:26:46.517Z,24.48
2018-05-01T11:27:46.569Z,24.58
2018-05-01T11:28:46.561Z,24.63
2018-05-01T11:29:46.877Z,24.68
2018-05-01T11:30:46.894Z,24.68
2018-05-01T11:31:46.648Z,24.76
2018-05-01T11:32:46.657Z,24.78
2018-05-01T11:33:46.787Z,24.78
2018-05-01T11:34:46.464Z,24.8
2018-05-01T11:35:47.025Z,24.88
2018-05-01T11:36:47.048Z,24.84
2018-05-01T11:37:47.067Z,24.96
2018-05-01T11:38:46.835Z,24.96
2018-05-01T11:39:47.095Z,25.03
2018-05-01T11:40:47.136Z,25.08
2018-05-01T11:41:47.159Z,25.11
2018-05-01T11:42:46.901Z,25.13
2018-05-01T11:43:47.246Z,25.17
2018-05-01T11:44:46.962Z,25.26
2018-05-01T11:45:47.243Z,25.36
2018-05-01T11:46:46.985Z,25.43
2018-05-01T11:47:47.316Z,25.51
2018-05-01T11:48:47.735Z,25.44
2018-05-01T11:49:47.364Z,25.58
2018-05-01T11:50:47.104Z,25.55
2018-05-01T11:51:47.418Z,25.58
2018-05-01T11:52:47.450Z,25.54
2018-05-01T11:53:47.693Z,25.59
2018-05-01T11:54:47.480Z,25.68
2018-05-01T11:55:47.507Z,25.66
2018-05-01T11:56:47.251Z,25.7
2018-05-01T11:57:47.551Z,25.7
2018-05-01T11:58:47.572Z,25.62
2018-05-01T11:59:47.606Z,25.7
2018-05-01T12:00:47.646Z,25.72
2018-05-01T12:01:47.652Z,25.78
2018-05-01T12:02:47.842Z,25.87
2018-05-01T12:03:47.723Z,25.93
2018-05-01T12:04:47.720Z,25.95
2018-05-01T12:05:47.761Z,26.05
2018-05-01T12:06:47.768Z,26.1
2018-05-01T12:07:47.799Z,26.1
2018-05-01T12:08:47.527Z,26.09
2018-05-01T12:09:47.837Z,26.13
2018-05-01T12:10:47.605Z,26.07
2018-05-01T12:11:47.920Z,26.06
2018-05-01T12:12:47.655Z,25.99
2018-05-01T12:13:47.948Z,26.07
2018-05-01T12:14:47.972Z,26.02
2018-05-01T12:15:47.982Z,26
2018-05-01T12:16:47.771Z,25.99
2018-05-01T12:17:48.069Z,25.96
2018-05-01T12:18:48.079Z,25.98
2018-05-01T12:19:48.107Z,25.91
2018-05-01T12:20:47.849Z,25.95
2018-05-01T12:21:47.887Z,25.9
2018-05-01T12:22:47.880Z,25.95
2018-05-01T12:23:48.418Z,25.96
2018-05-01T12:24:48.222Z,25.98
2018-05-01T12:25:48.272Z,25.9
2018-05-01T12:26:48.305Z,25.9
2018-05-01T12:27:48.310Z,25.84
2018-05-01T12:28:48.328Z,25.83
2018-05-01T12:29:48.073Z,25.93
2018-05-01T12:30:48.099Z,25.98
2018-05-01T12:31:48.422Z,25.9
2018-05-01T12:32:48.142Z,26
2018-05-01T12:33:48.475Z,26.03
2018-05-01T12:34:48.463Z,25.96
2018-05-01T12:35:48.512Z,25.98
2018-05-01T12:36:49.016Z,26.1
2018-05-01T12:37:48.563Z,26.05
2018-05-01T12:38:48.577Z,26.06
2018-05-01T12:39:48.612Z,26.22
2018-05-01T12:40:48.626Z,26.18
2018-05-01T12:41:48.667Z,26.21
2018-05-01T12:42:48.689Z,26.29
2018-05-01T12:43:48.436Z,26.26
2018-05-01T12:44:48.720Z,26.41
2018-05-01T12:45:48.465Z,26.43
2018-05-01T12:46:48.789Z,26.43
2018-05-01T12:47:48.536Z,26.44
2018-05-01T12:48:48.550Z,26.52
2018-05-01T12:49:48.573Z,26.56
2018-05-01T12:50:48.889Z,26.59
2018-05-01T12:51:48.915Z,26.63
2018-05-01T12:52:48.936Z,26.6
2018-05-01T12:53:49.099Z,26.74
2018-05-01T12:54:49.006Z,26.7
2018-05-01T12:55:48.743Z,26.75
2018-05-01T12:56:49.048Z,26.85